createdAt,value
2019-01-08T00:01:51.227Z,89.63
2019-01-08T00:04:20.346Z,89.42
2019-01-08T00:06:49.387Z,89.18
2019-01-08T00:09:18.426Z,88.47
2019-01-08T00:11:47.456Z,88.47
2019-01-08T00:14:16.473Z,88.96
2019-01-08T00:16:46.222Z,88.39
2019-01-08T00:19:15.317Z,88.27
2019-01-08T00:21:44.356Z,88.27
2019-01-08T00:24:13.388Z,87.83
2019-01-08T00:26:42.575Z,86.21
2019-01-08T00:29:11.724Z,85.83
2019-01-08T00:31:41.278Z,86.82
2019-01-08T00:34:10.616Z,85.53
2019-01-08T00:36:39.642Z,86.53
2019-01-08T00:39:08.672Z,86.53
2019-01-08T00:41:38.513Z,86.41
2019-01-08T00:44:07.520Z,87.20
2019-01-08T00:46:36.588Z,86.91
2019-01-08T00:49:05.641Z,86.91
2019-01-08T00:51:34.684Z,85.97
2019-01-08T00:54:03.711Z,85.41
2019-01-08T00:56:33.087Z,85.71
2019-01-08T00:59:02.106Z,85.40
2019-01-08T01:01:31.560Z,84.82
2019-01-08T01:04:00.612Z,84.82
2019-01-08T01:06:29.634Z,84.45
2019-01-08T01:08:58.683Z,85.86
2019-01-08T01:11:27.692Z,85.43
2019-01-08T01:13:57.084Z,85.08
2019-01-08T01:16:26.399Z,85.26
2019-01-08T01:18:55.430Z,85.03
2019-01-08T01:21:24.420Z,86.08
2019-01-08T01:23:53.427Z,86.15
2019-01-08T01:26:22.642Z,86.04
2019-01-08T01:28:59.693Z,86.21
2019-01-08T01:31:24.258Z,84.83
2019-01-08T01:33:53.585Z,83.95
2019-01-08T01:36:22.857Z,83.95
2019-01-08T01:38:51.867Z,84.66
2019-01-08T01:41:20.998Z,85.34
2019-01-08T01:43:50.169Z,85.08
2019-01-08T01:46:19.239Z,84.18
2019-01-08T01:48:48.937Z,82.54
2019-01-08T01:51:17.944Z,84.31
2019-01-08T01:53:46.991Z,83.67
2019-01-08T01:56:16.345Z,84.38
2019-01-08T01:58:45.475Z,83.98
2019-01-08T02:01:14.557Z,84.08
2019-01-08T02:03:43.976Z,82.81
2019-01-08T02:06:13.531Z,84.62
2019-01-08T02:08:42.597Z,82.78
2019-01-08T02:11:12.109Z,82.81
2019-01-08T02:13:41.143Z,82.35
2019-01-08T02:16:10.490Z,82.02
2019-01-08T02:18:39.537Z,82.78
2019-01-08T02:21:09.285Z,81.29
2019-01-08T02:23:38.977Z,81.64
2019-01-08T02:26:08.130Z,82.29
2019-01-08T02:28:37.476Z,83.11
2019-01-08T02:31:07.289Z,81.02
2019-01-08T02:33:36.273Z,83.59
2019-01-08T02:36:05.686Z,82.50
2019-01-08T02:38:35.185Z,81.81
2019-01-08T02:41:04.232Z,82.90
2019-01-08T02:43:33.288Z,81.27
2019-01-08T02:46:02.460Z,82.78
2019-01-08T02:48:31.791Z,82.45
2019-01-08T02:51:00.845Z,83.16
2019-01-08T02:53:29.938Z,83.79
2019-01-08T02:55:59.445Z,83.76
2019-01-08T02:58:28.476Z,83.06
2019-01-08T03:00:57.542Z,83.94
2019-01-08T03:03:26.573Z,82.45
2019-01-08T03:05:55.625Z,81.69
2019-01-08T03:08:25.028Z,81.59
2019-01-08T03:10:54.069Z,83.08
2019-01-08T03:13:23.108Z,83.21
2019-01-08T03:15:52.145Z,83.45
2019-01-08T03:18:21.810Z,81.92
2019-01-08T03:20:50.843Z,81.54
2019-01-08T03:23:19.911Z,82.94
2019-01-08T03:25:49.013Z,82.32
2019-01-08T03:28:18.151Z,82.37
2019-01-08T03:30:47.241Z,82.80
2019-01-08T03:33:16.241Z,82.27
2019-01-08T03:35:45.897Z,83.17
2019-01-08T03:38:14.950Z,83.11
2019-01-08T03:40:44.630Z,83.86
2019-01-08T03:43:13.702Z,82.78
2019-01-08T03:45:43.151Z,82.83
2019-01-08T03:48:12.178Z,83.58
2019-01-08T03:50:41.292Z,85.27
2019-01-08T03:53:10.594Z,83.54
2019-01-08T03:55:39.662Z,84.55
2019-01-08T03:58:09.436Z,83.44
2019-01-08T04:00:38.700Z,82.81
2019-01-08T04:03:07.981Z,83.55
2019-01-08T04:05:37.058Z,83.44
2019-01-08T04:08:06.068Z,83.33
2019-01-08T04:10:35.101Z,84.15
2019-01-08T04:13:04.095Z,83.56
2019-01-08T04:15:36.379Z,84.00
2019-01-08T04:18:06.057Z,84.37
2019-01-08T04:20:35.117Z,83.75
2019-01-08T04:23:04.550Z,83.62
2019-01-08T04:25:33.887Z,83.89
2019-01-08T04:28:02.956Z,84.61
2019-01-08T04:30:34.878Z,84.32
2019-01-08T04:33:03.947Z,84.31
2019-01-08T04:35:33.006Z,85.82
2019-01-08T04:38:02.051Z,84.57
2019-01-08T04:40:31.106Z,84.97
2019-01-08T04:43:00.849Z,84.10
2019-01-08T04:45:29.889Z,85.08
2019-01-08T04:47:58.918Z,86.08
2019-01-08T04:50:27.960Z,85.24
2019-01-08T04:52:56.999Z,84.53
2019-01-08T04:55:26.033Z,84.49
2019-01-08T04:57:56.019Z,85.68
2019-01-08T05:00:25.133Z,85.37
2019-01-08T05:02:54.180Z,84.31
2019-01-08T05:05:23.492Z,84.58
2019-01-08T05:07:52.789Z,85.54
2019-01-08T05:10:22.403Z,85.07
2019-01-08T05:12:51.525Z,84.89
2019-01-08T05:15:21.211Z,85.37
2019-01-08T05:17:50.354Z,85.35
2019-01-08T05:20:19.357Z,85.71
2019-01-08T05:22:48.445Z,86.01
2019-01-08T05:25:18.111Z,85.39
2019-01-08T05:27:47.342Z,85.74
2019-01-08T05:30:16.364Z,85.82
2019-01-08T05:32:45.698Z,85.96
2019-01-08T05:35:14.997Z,86.07
2019-01-08T05:37:44.398Z,86.05
2019-01-08T05:40:13.702Z,85.91
2019-01-08T05:42:42.723Z,86.01
2019-01-08T05:45:12.405Z,85.74
2019-01-08T05:47:41.914Z,85.68
2019-01-08T05:50:10.903Z,85.75
2019-01-08T05:52:40.300Z,85.78
2019-01-08T05:55:09.349Z,85.92
2019-01-08T05:57:38.375Z,85.57
2019-01-08T06:00:16.090Z,85.48
2019-01-08T06:02:39.565Z,85.34
2019-01-08T06:05:09.005Z,85.83
2019-01-08T06:07:38.080Z,85.56
2019-01-08T06:10:08.901Z,85.27
2019-01-08T06:12:38.301Z,85.21
2019-01-08T06:15:07.705Z,85.27
2019-01-08T06:17:36.735Z,85.26
2019-01-08T06:20:06.507Z,85.44
2019-01-08T06:22:36.129Z,85.65
2019-01-08T06:25:05.704Z,85.56
2019-01-08T06:27:35.379Z,85.77
2019-01-08T06:30:05.966Z,85.44
2019-01-08T06:32:35.397Z,85.14
2019-01-08T06:35:05.035Z,85.20
2019-01-08T06:37:34.047Z,85.18
2019-01-08T06:40:03.893Z,85.03
2019-01-08T06:42:32.991Z,85.87
2019-01-08T06:45:02.079Z,86.56
2019-01-08T06:47:31.118Z,85.72
2019-01-08T06:50:00.277Z,85.38
2019-01-08T06:52:29.373Z,85.86
2019-01-08T06:54:58.393Z,85.90
2019-01-08T06:57:27.749Z,85.97
2019-01-08T06:59:56.774Z,86.20
2019-01-08T07:02:25.785Z,86.31
2019-01-08T07:04:55.453Z,86.16
2019-01-08T07:07:24.466Z,86.25
2019-01-08T07:09:53.848Z,85.90
2019-01-08T07:12:23.459Z,86.86
2019-01-08T07:14:53.159Z,86.82
2019-01-08T07:17:22.531Z,85.66
2019-01-08T07:19:51.532Z,85.57
2019-01-08T07:22:20.861Z,85.33
2019-01-08T07:24:49.884Z,85.57
2019-01-08T07:27:19.259Z,83.98
2019-01-08T07:29:48.993Z,84.43
2019-01-08T07:32:18.028Z,85.01
2019-01-08T07:34:47.405Z,85.38
2019-01-08T07:37:16.449Z,85.87
2019-01-08T07:39:45.757Z,85.37
2019-01-08T07:42:15.114Z,85.32
2019-01-08T07:44:44.467Z,86.06
2019-01-08T07:47:13.881Z,85.07
2019-01-08T07:49:42.875Z,85.09
2019-01-08T07:52:11.917Z,84.79
2019-01-08T07:54:41.693Z,84.98
2019-01-08T07:57:10.721Z,86.02
2019-01-08T07:59:40.075Z,85.56
2019-01-08T08:02:09.088Z,84.93
2019-01-08T08:04:38.189Z,85.06
2019-01-08T08:07:07.256Z,85.20
2019-01-08T08:09:36.263Z,84.92
2019-01-08T08:12:05.334Z,84.70
2019-01-08T08:14:34.463Z,85.48
2019-01-08T08:17:03.835Z,84.79
2019-01-08T08:19:33.267Z,84.65
2019-01-08T08:22:02.299Z,84.43
2019-01-08T08:24:31.351Z,84.70
2019-01-08T08:27:00.380Z,83.57
2019-01-08T08:29:29.437Z,83.44
2019-01-08T08:31:58.490Z,83.36
2019-01-08T08:34:27.501Z,83.17
2019-01-08T08:36:57.121Z,83.12
2019-01-08T08:39:26.285Z,83.82
2019-01-08T08:41:56.003Z,83.01
2019-01-08T08:44:25.016Z,83.22
2019-01-08T08:46:54.075Z,82.79
2019-01-08T08:49:23.153Z,83.54
2019-01-08T08:51:52.215Z,83.90
2019-01-08T08:54:21.656Z,83.42
2019-01-08T08:56:50.961Z,82.21
2019-01-08T08:59:19.977Z,81.57
2019-01-08T09:01:49.003Z,81.64
2019-01-08T09:04:18.008Z,81.89
2019-01-08T09:06:47.017Z,81.68
2019-01-08T09:09:16.035Z,81.40
2019-01-08T09:11:45.933Z,81.46
2019-01-08T09:14:15.002Z,79.87
2019-01-08T09:16:44.367Z,80.18
2019-01-08T09:19:13.687Z,80.96
2019-01-08T09:21:43.011Z,78.47
2019-01-08T09:24:12.429Z,75.24
2019-01-08T09:26:41.463Z,72.56
2019-01-08T09:29:10.490Z,70.03
2019-01-08T09:31:39.561Z,64.68
2019-01-08T09:34:08.952Z,65.05
2019-01-08T09:36:37.959Z,62.84
2019-01-08T09:39:07.457Z,62.17
2019-01-08T09:41:36.770Z,62.42
2019-01-08T09:44:05.839Z,61.38
2019-01-08T09:46:35.173Z,61.32
2019-01-08T09:49:04.214Z,59.34
2019-01-08T09:51:33.245Z,57.72
2019-01-08T09:54:02.644Z,56.13
2019-01-08T09:56:31.685Z,55.52
2019-01-08T09:59:00.662Z,55.06
2019-01-08T10:01:29.687Z,57.16
2019-01-08T10:03:58.737Z,55.73
2019-01-08T10:06:28.025Z,56.57
2019-01-08T10:08:57.339Z,57.44
2019-01-08T10:11:26.349Z,55.74
2019-01-08T10:13:55.668Z,55.66
2019-01-08T10:16:24.740Z,54.70
2019-01-08T10:18:53.752Z,55.01
2019-01-08T10:21:22.771Z,52.13
2019-01-08T10:23:52.090Z,52.77
2019-01-08T10:26:21.147Z,54.57
2019-01-08T10:28:50.150Z,56.73
2019-01-08T10:31:19.461Z,60.33
2019-01-08T10:33:48.530Z,62.51
2019-01-08T10:36:17.941Z,64.32
2019-01-08T10:38:47.019Z,65.66
2019-01-08T10:41:16.042Z,68.10
2019-01-08T10:43:45.092Z,68.08
2019-01-08T10:46:14.365Z,68.11
2019-01-08T10:48:43.721Z,68.40
2019-01-08T10:51:12.953Z,68.37
2019-01-08T10:53:42.281Z,64.98
2019-01-08T10:56:11.649Z,62.66
2019-01-08T10:58:40.680Z,62.18
2019-01-08T11:01:09.678Z,63.55
2019-01-08T11:03:38.738Z,59.89
2019-01-08T11:06:07.815Z,55.85
2019-01-08T11:08:36.839Z,54.31
2019-01-08T11:11:06.158Z,55.80
2019-01-08T11:13:35.217Z,58.78
2019-01-08T11:16:04.528Z,57.39
2019-01-08T11:18:33.570Z,56.99
2019-01-08T11:21:02.618Z,54.43
2019-01-08T11:23:31.942Z,57.15
2019-01-08T11:26:00.980Z,57.24
2019-01-08T11:28:30.010Z,57.02
2019-01-08T11:30:59.037Z,56.18
2019-01-08T11:33:28.983Z,58.38
2019-01-08T11:35:58.011Z,58.31
2019-01-08T11:38:27.012Z,59.36
2019-01-08T11:40:56.026Z,59.86
2019-01-08T11:43:24.967Z,60.64
2019-01-08T11:45:54.093Z,63.62
2019-01-08T11:48:23.092Z,65.19
2019-01-08T11:50:52.099Z,65.49
2019-01-08T11:53:21.126Z,67.25
2019-01-08T11:55:51.206Z,66.44
2019-01-08T11:58:20.619Z,67.38
2019-01-08T12:00:49.675Z,68.44
2019-01-08T12:03:18.797Z,69.32
2019-01-08T12:05:47.818Z,67.51
2019-01-08T12:08:17.389Z,69.40
2019-01-08T12:10:46.822Z,65.45
2019-01-08T12:13:16.297Z,64.04
2019-01-08T12:15:45.294Z,63.15
2019-01-08T12:18:14.317Z,59.30
2019-01-08T12:20:43.325Z,59.24
2019-01-08T12:23:12.360Z,56.75
2019-01-08T12:25:41.738Z,56.39
2019-01-08T12:28:11.480Z,57.85
2019-01-08T12:30:40.476Z,57.05
2019-01-08T12:33:09.510Z,56.71
2019-01-08T12:35:38.512Z,56.42
2019-01-08T12:38:07.539Z,58.56
2019-01-08T12:40:36.574Z,59.30
2019-01-08T12:43:05.586Z,64.78
2019-01-08T12:45:37.644Z,66.87
2019-01-08T12:48:06.630Z,65.88
2019-01-08T12:50:35.671Z,68.07
2019-01-08T12:53:05.007Z,67.47
2019-01-08T12:55:35.434Z,68.29
2019-01-08T12:58:04.430Z,67.90
2019-01-08T13:00:33.709Z,69.21
2019-01-08T13:03:03.026Z,70.04
2019-01-08T13:05:32.058Z,71.89
2019-01-08T13:08:01.044Z,71.02
2019-01-08T13:10:30.332Z,71.33
2019-01-08T13:12:59.356Z,70.43
2019-01-08T13:15:28.690Z,70.69
2019-01-08T13:17:57.724Z,71.29
2019-01-08T13:20:28.832Z,70.10
2019-01-08T13:22:58.146Z,70.88
2019-01-08T13:25:27.154Z,72.76
2019-01-08T13:27:56.215Z,69.65
2019-01-08T13:30:25.535Z,70.59
2019-01-08T13:32:54.547Z,71.21
2019-01-08T13:35:23.650Z,67.15
2019-01-08T13:37:53.230Z,68.98
2019-01-08T13:40:23.107Z,67.25
2019-01-08T13:42:52.101Z,68.65
2019-01-08T13:45:21.154Z,67.32
2019-01-08T13:47:50.158Z,68.72
2019-01-08T13:50:19.220Z,67.62
2019-01-08T13:52:48.258Z,70.25
2019-01-08T13:55:17.237Z,71.55
2019-01-08T13:57:46.616Z,70.39
2019-01-08T14:00:16.382Z,71.07
2019-01-08T14:02:45.426Z,70.52
2019-01-08T14:05:14.420Z,70.35
2019-01-08T14:07:43.419Z,71.56
2019-01-08T14:10:12.444Z,71.09
2019-01-08T14:12:41.725Z,71.19
2019-01-08T14:15:10.989Z,72.37
2019-01-08T14:17:40.312Z,72.37
2019-01-08T14:20:09.647Z,72.70
2019-01-08T14:22:38.691Z,73.24
2019-01-08T14:25:08.112Z,73.24
2019-01-08T14:27:37.132Z,71.30
2019-01-08T14:30:07.094Z,73.16
2019-01-08T14:32:40.690Z,71.08
2019-01-08T14:35:07.570Z,70.35
2019-01-08T14:37:36.630Z,73.78
2019-01-08T14:40:06.399Z,72.62
2019-01-08T14:42:35.409Z,73.24
2019-01-08T14:45:05.078Z,71.00
2019-01-08T14:47:34.148Z,72.02
2019-01-08T14:50:03.157Z,69.76
2019-01-08T14:52:32.200Z,69.88
2019-01-08T14:55:01.556Z,69.33
2019-01-08T14:57:30.578Z,70.83
2019-01-08T14:59:59.918Z,69.82
2019-01-08T15:02:29.493Z,71.48
2019-01-08T15:04:58.602Z,71.93
2019-01-08T15:07:27.618Z,72.34
2019-01-08T15:09:56.979Z,71.67
2019-01-08T15:12:26.386Z,73.88
2019-01-08T15:14:55.968Z,71.14
2019-01-08T15:17:24.993Z,71.50
2019-01-08T15:19:54.068Z,71.96
2019-01-08T15:22:23.124Z,72.03
2019-01-08T15:24:52.691Z,74.52
2019-01-08T15:27:22.260Z,73.95
2019-01-08T15:29:51.310Z,74.78
2019-01-08T15:32:20.324Z,74.49
2019-01-08T15:34:49.378Z,74.46
2019-01-08T15:37:18.448Z,74.28
2019-01-08T15:39:47.492Z,73.54
2019-01-08T15:42:16.533Z,73.11
2019-01-08T15:44:45.870Z,73.35
2019-01-08T15:47:14.947Z,72.66
2019-01-08T15:49:44.048Z,73.35
2019-01-08T15:52:13.087Z,75.65
2019-01-08T15:54:42.398Z,76.21
2019-01-08T15:57:11.446Z,74.33
2019-01-08T15:59:40.589Z,76.19
2019-01-08T16:02:09.932Z,75.76
2019-01-08T16:04:39.318Z,77.42
2019-01-08T16:07:08.389Z,77.43
2019-01-08T16:09:37.688Z,76.42
2019-01-08T16:12:08.628Z,77.02
2019-01-08T16:14:37.911Z,77.39
2019-01-08T16:17:07.215Z,76.15
2019-01-08T16:19:36.531Z,77.26
2019-01-08T16:22:06.097Z,75.30
2019-01-08T16:24:35.431Z,75.96
2019-01-08T16:27:04.507Z,76.37
2019-01-08T16:29:34.997Z,76.81
2019-01-08T16:32:04.049Z,78.80
2019-01-08T16:34:33.094Z,78.21
2019-01-08T16:37:02.138Z,78.73
2019-01-08T16:39:31.169Z,75.97
2019-01-08T16:42:00.209Z,77.37
2019-01-08T16:44:29.510Z,77.33
2019-01-08T16:46:58.545Z,78.91
2019-01-08T16:49:27.600Z,80.50
2019-01-08T16:51:59.253Z,78.81
2019-01-08T16:54:28.640Z,78.18
2019-01-08T16:56:58.385Z,80.14
2019-01-08T16:59:27.460Z,77.64
2019-01-08T17:01:57.889Z,79.01
2019-01-08T17:04:28.112Z,79.71
2019-01-08T17:06:57.205Z,81.09
2019-01-08T17:09:26.265Z,81.96
2019-01-08T17:11:55.300Z,82.24
2019-01-08T17:14:24.419Z,82.90
2019-01-08T17:16:53.414Z,85.12
2019-01-08T17:19:22.422Z,83.19
2019-01-08T17:21:52.267Z,83.60
2019-01-08T17:24:21.321Z,82.91
2019-01-08T17:26:50.416Z,83.45
2019-01-08T17:29:19.438Z,83.54
2019-01-08T17:31:48.455Z,84.44
2019-01-08T17:34:17.505Z,83.18
2019-01-08T17:36:46.557Z,83.93
2019-01-08T17:39:15.694Z,83.11
2019-01-08T17:41:44.761Z,82.76
2019-01-08T17:44:13.777Z,81.82
2019-01-08T17:46:42.813Z,82.83
2019-01-08T17:49:12.058Z,82.60
2019-01-08T17:51:41.164Z,82.39
2019-01-08T17:54:11.208Z,83.47
2019-01-08T17:56:40.360Z,83.53
2019-01-08T17:59:17.727Z,82.34
2019-01-08T18:01:53.799Z,84.08
2019-01-08T18:04:22.977Z,82.53
2019-01-08T18:06:52.026Z,82.56
2019-01-08T18:09:21.357Z,82.60
2019-01-08T18:11:50.429Z,83.08
2019-01-08T18:14:19.907Z,82.94
2019-01-08T18:16:48.954Z,82.60
2019-01-08T18:19:18.002Z,83.39
2019-01-08T18:21:47.056Z,83.01
2019-01-08T18:24:16.095Z,83.77
2019-01-08T18:26:45.178Z,84.73
2019-01-08T18:29:14.280Z,83.55
2019-01-08T18:31:43.283Z,83.95
2019-01-08T18:34:12.353Z,82.93
2019-01-08T18:36:41.383Z,84.27
2019-01-08T18:39:11.834Z,83.97
2019-01-08T18:41:40.877Z,84.71
2019-01-08T18:44:09.972Z,83.12
2019-01-08T18:46:38.995Z,84.02
2019-01-08T18:49:08.075Z,84.64
2019-01-08T18:51:37.118Z,84.90
2019-01-08T18:54:06.162Z,83.81
2019-01-08T18:56:35.501Z,82.93
2019-01-08T18:59:04.627Z,83.53
2019-01-08T19:01:33.668Z,83.89
2019-01-08T19:04:02.703Z,83.94
2019-01-08T19:06:32.058Z,85.15
2019-01-08T19:09:23.652Z,84.55
2019-01-08T19:11:53.257Z,83.33
2019-01-08T19:14:23.950Z,83.39
2019-01-08T19:16:53.014Z,83.48
2019-01-08T19:19:22.294Z,83.40
2019-01-08T19:21:51.342Z,83.52
2019-01-08T19:24:20.824Z,83.40
2019-01-08T19:26:49.903Z,82.70
2019-01-08T19:29:18.925Z,83.66
2019-01-08T19:31:47.939Z,83.28
2019-01-08T19:34:17.107Z,82.62
2019-01-08T19:36:46.562Z,82.25
2019-01-08T19:39:15.970Z,82.86
2019-01-08T19:41:45.121Z,83.71
2019-01-08T19:44:14.229Z,83.50
2019-01-08T19:46:43.309Z,83.13
2019-01-08T19:49:12.403Z,82.61
2019-01-08T19:51:41.553Z,81.32
2019-01-08T19:54:10.892Z,82.37
2019-01-08T19:56:40.202Z,81.55
2019-01-08T19:59:09.246Z,81.87
2019-01-08T20:01:38.287Z,81.91
2019-01-08T20:04:07.719Z,83.34
2019-01-08T20:06:37.093Z,83.72
2019-01-08T20:09:08.203Z,83.93
2019-01-08T20:11:37.403Z,83.02
2019-01-08T20:14:07.930Z,83.03
2019-01-08T20:16:37.271Z,82.06
2019-01-08T20:19:06.297Z,83.02
2019-01-08T20:21:35.331Z,83.23
2019-01-08T20:24:06.468Z,83.89
2019-01-08T20:26:35.118Z,84.85
2019-01-08T20:29:04.213Z,84.44
2019-01-08T20:31:33.239Z,84.13
2019-01-08T20:34:02.253Z,83.53
2019-01-08T20:36:31.273Z,83.64
2019-01-08T20:39:00.702Z,83.13
2019-01-08T20:41:29.735Z,81.74
2019-01-08T20:43:58.745Z,82.57
2019-01-08T20:46:28.090Z,82.13
2019-01-08T20:48:57.069Z,81.78
2019-01-08T20:51:26.111Z,81.95
2019-01-08T20:53:55.520Z,82.42
2019-01-08T20:56:24.597Z,83.89
2019-01-08T20:58:53.652Z,84.06
2019-01-08T21:01:22.898Z,81.88
2019-01-08T21:03:52.357Z,82.55
2019-01-08T21:06:21.751Z,82.62
2019-01-08T21:08:51.185Z,82.86
2019-01-08T21:11:20.295Z,83.97
2019-01-08T21:13:50.382Z,84.10
2019-01-08T21:16:19.450Z,84.05
2019-01-08T21:18:49.577Z,85.65
2019-01-08T21:21:18.634Z,84.78
2019-01-08T21:23:47.732Z,84.53
2019-01-08T21:26:18.287Z,84.83
2019-01-08T21:28:47.344Z,85.18
2019-01-08T21:31:16.454Z,84.52
2019-01-08T21:33:46.089Z,85.19
2019-01-08T21:36:15.429Z,85.76
2019-01-08T21:38:44.554Z,85.81
2019-01-08T21:41:13.837Z,86.13
2019-01-08T21:43:43.003Z,85.53
2019-01-08T21:46:12.100Z,84.73
2019-01-08T21:48:41.158Z,84.73
2019-01-08T21:51:10.286Z,84.13
2019-01-08T21:53:39.338Z,85.13
2019-01-08T21:56:08.703Z,84.62
2019-01-08T21:58:37.832Z,85.46
2019-01-08T22:01:07.612Z,83.60
2019-01-08T22:03:36.973Z,83.54
2019-01-08T22:06:06.384Z,85.12
2019-01-08T22:08:36.067Z,83.38
2019-01-08T22:11:05.099Z,82.18
2019-01-08T22:13:34.480Z,82.35
2019-01-08T22:16:03.577Z,83.38
2019-01-08T22:18:32.552Z,83.21
2019-01-08T22:21:01.583Z,83.29
2019-01-08T22:23:30.610Z,82.69
2019-01-08T22:25:59.684Z,82.82
2019-01-08T22:28:28.778Z,82.62
2019-01-08T22:30:58.183Z,82.75
2019-01-08T22:33:27.180Z,82.81
2019-01-08T22:35:56.934Z,81.66
2019-01-08T22:38:26.049Z,83.16
2019-01-08T22:40:55.080Z,84.99
2019-01-08T22:43:24.672Z,85.34
2019-01-08T22:45:54.181Z,84.22
2019-01-08T22:48:23.565Z,85.07
2019-01-08T22:50:53.066Z,85.27
2019-01-08T22:53:22.119Z,85.19
2019-01-08T22:55:51.491Z,86.12
2019-01-08T22:58:20.528Z,84.88
2019-01-08T23:01:17.715Z,84.96
2019-01-08T23:03:46.743Z,84.82
2019-01-08T23:06:15.855Z,84.13
2019-01-08T23:08:44.891Z,84.83
2019-01-08T23:11:13.949Z,84.64
2019-01-08T23:13:42.981Z,85.34
2019-01-08T23:16:12.319Z,83.27
2019-01-08T23:18:41.549Z,82.98
2019-01-08T23:21:10.891Z,84.31
2019-01-08T23:23:39.890Z,83.38
2019-01-08T23:26:08.923Z,83.03
2019-01-08T23:28:38.135Z,83.02
2019-01-08T23:31:07.499Z,83.95
2019-01-08T23:33:36.561Z,82.46
2019-01-08T23:36:06.399Z,83.81
2019-01-08T23:38:35.841Z,81.69
2019-01-08T23:41:05.229Z,81.33
2019-01-08T23:43:34.639Z,81.62
2019-01-08T23:46:03.659Z,81.74
2019-01-08T23:48:33.002Z,82.09
2019-01-08T23:51:02.060Z,82.33
2019-01-08T23:53:36.757Z,82.96
2019-01-08T23:56:06.999Z,83.54
2019-01-08T23:58:36.039Z,83.42
